createdAt,value
2018-10-18T00:01:06.812Z,8.73
2018-10-18T00:03:36.631Z,9.73
2018-10-18T00:06:06.407Z,8.90
2018-10-18T00:08:36.099Z,8.30
2018-10-18T00:11:05.631Z,9.27
2018-10-18T00:13:35.471Z,7.67
2018-10-18T00:16:05.126Z,8.23
2018-10-18T00:18:34.784Z,8.83
2018-10-18T00:21:04.142Z,8.23
2018-10-18T00:23:33.626Z,8.63
2018-10-18T00:26:04.289Z,8.70
2018-10-18T00:28:33.977Z,7.77
2018-10-18T00:31:03.640Z,7.80
2018-10-18T00:33:33.031Z,8.30
2018-10-18T00:36:02.690Z,8.03
2018-10-18T00:38:32.104Z,7.90
2018-10-18T00:41:01.675Z,8.60
2018-10-18T00:43:31.528Z,8.67
2018-10-18T00:46:01.111Z,8.97
2018-10-18T00:48:30.609Z,8.97
2018-10-18T00:51:00.167Z,6.87
2018-10-18T00:53:29.743Z,8.17
2018-10-18T00:55:59.223Z,7.43
2018-10-18T00:58:28.901Z,8.00
2018-10-18T01:00:58.710Z,6.90
2018-10-18T01:03:28.368Z,7.63
2018-10-18T01:05:57.985Z,7.60
2018-10-18T01:08:27.559Z,7.30
2018-10-18T01:10:57.256Z,8.73
2018-10-18T01:13:26.752Z,7.90
2018-10-18T01:15:56.238Z,8.27
2018-10-18T01:18:26.251Z,8.27
2018-10-18T01:20:55.871Z,7.87
2018-10-18T01:23:25.451Z,8.43
2018-10-18T01:25:55.056Z,8.07
2018-10-18T01:28:24.829Z,8.83
2018-10-18T01:30:54.674Z,7.73
2018-10-18T01:33:24.156Z,8.80
2018-10-18T01:35:53.704Z,8.07
2018-10-18T01:38:23.260Z,8.03
2018-10-18T01:40:52.934Z,9.33
2018-10-18T01:43:22.514Z,8.47
2018-10-18T01:45:51.881Z,8.17
2018-10-18T01:48:21.603Z,7.73
2018-10-18T01:50:51.041Z,7.20
2018-10-18T01:53:20.640Z,7.80
2018-10-18T01:55:50.033Z,9.33
2018-10-18T01:58:19.454Z,8.13
2018-10-18T02:00:48.968Z,9.07
2018-10-18T02:03:18.585Z,7.50
2018-10-18T02:05:48.525Z,9.13
2018-10-18T02:08:17.964Z,8.97
2018-10-18T02:10:47.374Z,8.57
2018-10-18T02:13:16.985Z,8.40
2018-10-18T02:15:46.628Z,9.40
2018-10-18T02:18:16.183Z,8.57
2018-10-18T02:20:45.835Z,8.57
2018-10-18T02:23:15.234Z,8.33
2018-10-18T02:25:44.681Z,8.73
2018-10-18T02:28:14.069Z,8.47
2018-10-18T02:30:43.527Z,8.77
2018-10-18T02:33:12.972Z,8.47
2018-10-18T02:35:42.639Z,8.17
2018-10-18T02:38:12.215Z,8.03
2018-10-18T02:40:41.915Z,8.20
2018-10-18T02:43:11.345Z,7.77
2018-10-18T02:45:40.972Z,7.83
2018-10-18T02:48:10.519Z,7.30
2018-10-18T02:50:40.097Z,7.70
2018-10-18T02:53:09.863Z,7.03
2018-10-18T02:55:39.375Z,8.33
2018-10-18T02:58:08.799Z,8.63
2018-10-18T03:00:38.329Z,8.63
2018-10-18T03:03:07.869Z,8.03
2018-10-18T03:05:37.490Z,8.60
2018-10-18T03:08:07.167Z,9.17
2018-10-18T03:10:36.300Z,8.48
2018-10-18T03:13:05.926Z,8.43
2018-10-18T03:15:35.429Z,9.68
2018-10-18T03:18:05.081Z,8.15
2018-10-18T03:20:34.610Z,8.57
2018-10-18T03:23:04.250Z,7.37
2018-10-18T03:25:33.765Z,7.30
2018-10-18T03:28:03.071Z,8.03
2018-10-18T03:30:32.458Z,7.97
2018-10-18T03:33:02.011Z,8.27
2018-10-18T03:35:31.770Z,8.57
2018-10-18T03:38:01.662Z,8.07
2018-10-18T03:40:31.487Z,7.83
2018-10-18T03:43:01.089Z,7.93
2018-10-18T03:45:30.669Z,9.27
2018-10-18T03:48:00.290Z,7.93
2018-10-18T03:50:29.748Z,7.00
2018-10-18T03:52:59.325Z,7.73
2018-10-18T03:55:29.236Z,7.40
2018-10-18T03:57:58.802Z,8.83
2018-10-18T04:00:28.365Z,7.93
2018-10-18T04:02:57.947Z,9.10
2018-10-18T04:05:27.438Z,9.13
2018-10-18T04:07:56.955Z,8.47
2018-10-18T04:10:26.612Z,8.33
2018-10-18T04:12:56.303Z,8.20
2018-10-18T04:15:25.929Z,9.13
2018-10-18T04:17:55.429Z,8.03
2018-10-18T04:20:24.883Z,7.77
2018-10-18T04:22:54.376Z,7.73
2018-10-18T04:25:24.027Z,8.08
2018-10-18T04:27:53.526Z,8.43
2018-10-18T04:30:23.080Z,7.87
2018-10-18T04:32:52.508Z,8.10
2018-10-18T04:35:22.094Z,8.80
2018-10-18T04:37:51.625Z,8.60
2018-10-18T04:40:20.967Z,8.15
2018-10-18T04:42:50.511Z,8.47
2018-10-18T04:45:19.996Z,9.23
2018-10-18T04:47:49.655Z,8.80
2018-10-18T04:50:19.139Z,8.53
2018-10-18T04:52:48.684Z,7.40
2018-10-18T04:55:18.271Z,7.60
2018-10-18T04:57:47.735Z,8.57
2018-10-18T05:00:17.153Z,8.23
2018-10-18T05:02:47.170Z,7.83
2018-10-18T05:05:27.589Z,8.50
2018-10-18T05:07:57.166Z,7.77
2018-10-18T05:10:26.739Z,9.17
2018-10-18T05:12:56.332Z,8.75
2018-10-18T05:15:25.772Z,7.73
2018-10-18T05:17:55.546Z,7.60
2018-10-18T05:20:25.092Z,8.57
2018-10-18T05:22:54.682Z,7.27
2018-10-18T05:25:24.367Z,7.67
2018-10-18T05:27:54.077Z,8.63
2018-10-18T05:30:23.623Z,7.50
2018-10-18T05:32:53.165Z,8.37
2018-10-18T05:35:22.875Z,8.28
2018-10-18T05:37:52.667Z,9.15
2018-10-18T05:40:22.204Z,9.13
2018-10-18T05:42:52.528Z,8.48
2018-10-18T05:45:22.069Z,8.55
2018-10-18T05:47:51.918Z,8.78
2018-10-18T05:50:21.660Z,8.18
2018-10-18T05:52:51.117Z,8.88
2018-10-18T05:55:20.731Z,8.43
2018-10-18T05:57:50.098Z,9.53
2018-10-18T06:00:20.105Z,9.00
2018-10-18T06:02:49.536Z,8.13
2018-10-18T06:05:19.500Z,9.77
2018-10-18T06:07:49.102Z,8.97
2018-10-18T06:10:29.430Z,8.30
2018-10-18T06:12:59.433Z,7.77
2018-10-18T06:15:29.070Z,9.13
2018-10-18T06:17:58.527Z,8.20
2018-10-18T06:20:28.071Z,9.60
2018-10-18T06:22:57.724Z,11.03
2018-10-18T06:25:27.139Z,9.27
2018-10-18T06:27:56.819Z,8.97
2018-10-18T06:30:26.613Z,9.37
2018-10-18T06:32:56.071Z,9.67
2018-10-18T06:35:25.843Z,8.53
2018-10-18T06:37:55.566Z,7.93
2018-10-18T06:40:27.011Z,7.90
2018-10-18T06:42:57.054Z,8.67
2018-10-18T06:45:26.679Z,8.87
2018-10-18T06:47:56.394Z,8.37
2018-10-18T06:50:25.827Z,9.00
2018-10-18T06:52:55.512Z,9.53
2018-10-18T06:55:25.176Z,8.00
2018-10-18T06:57:54.878Z,8.27
2018-10-18T07:00:25.305Z,9.10
2018-10-18T07:02:54.993Z,8.37
2018-10-18T07:05:24.423Z,8.90
2018-10-18T07:07:54.097Z,8.50
2018-10-18T07:10:23.716Z,8.53
2018-10-18T07:12:53.464Z,12.20
2018-10-18T07:15:22.944Z,7.53
2018-10-18T07:17:52.692Z,8.27
2018-10-18T07:20:22.482Z,8.30
2018-10-18T07:22:52.065Z,7.60
2018-10-18T07:25:22.987Z,8.00
2018-10-18T07:27:52.749Z,8.10
2018-10-18T07:30:22.403Z,7.50
2018-10-18T07:32:52.005Z,8.93
2018-10-18T07:35:21.696Z,8.60
2018-10-18T07:37:51.142Z,8.83
2018-10-18T07:40:20.661Z,10.00
2018-10-18T07:42:50.314Z,10.03
2018-10-18T07:45:19.955Z,9.63
2018-10-18T07:47:49.448Z,10.07
2018-10-18T07:50:19.193Z,9.67
2018-10-18T07:52:48.754Z,10.33
2018-10-18T07:55:18.227Z,9.33
2018-10-18T07:57:47.668Z,9.90
2018-10-18T08:00:17.444Z,9.83
2018-10-18T08:02:47.309Z,10.30
2018-10-18T08:05:16.931Z,10.37
2018-10-18T08:07:46.750Z,9.97
2018-10-18T08:10:18.498Z,10.97
2018-10-18T08:12:48.240Z,10.70
2018-10-18T08:15:18.218Z,11.10
2018-10-18T08:17:47.746Z,11.50
2018-10-18T08:20:17.298Z,9.73
2018-10-18T08:22:47.066Z,11.87
2018-10-18T08:25:16.774Z,11.33
2018-10-18T08:27:46.276Z,11.50
2018-10-18T08:30:16.064Z,10.70
2018-10-18T08:32:45.613Z,10.07
2018-10-18T08:35:15.156Z,10.17
2018-10-18T08:37:45.134Z,9.50
2018-10-18T08:40:14.516Z,10.63
2018-10-18T08:42:43.962Z,10.40
2018-10-18T08:45:13.852Z,9.13
2018-10-18T08:47:43.404Z,9.23
2018-10-18T08:50:13.382Z,9.97
2018-10-18T08:52:43.044Z,9.73
2018-10-18T08:55:13.808Z,9.30
2018-10-18T08:57:43.926Z,9.03
2018-10-18T09:00:13.969Z,8.83
2018-10-18T09:02:43.748Z,8.57
2018-10-18T09:05:13.285Z,8.87
2018-10-18T09:07:42.700Z,9.50
2018-10-18T09:10:12.326Z,9.27
2018-10-18T09:12:41.787Z,10.07
2018-10-18T09:15:12.127Z,9.70
2018-10-18T09:17:41.658Z,9.67
2018-10-18T09:20:11.281Z,8.77
2018-10-18T09:22:40.725Z,8.60
2018-10-18T09:25:11.288Z,9.70
2018-10-18T09:27:41.228Z,9.63
2018-10-18T09:30:12.119Z,9.10
2018-10-18T09:32:41.761Z,9.43
2018-10-18T09:35:11.300Z,9.60
2018-10-18T09:37:40.746Z,9.27
2018-10-18T09:40:11.175Z,10.20
2018-10-18T09:42:41.041Z,9.30
2018-10-18T09:45:11.908Z,10.10
2018-10-18T09:47:41.425Z,10.73
2018-10-18T09:50:12.085Z,10.27
2018-10-18T09:52:42.488Z,10.07
2018-10-18T09:55:13.201Z,10.57
2018-10-18T09:57:42.965Z,9.50
2018-10-18T10:00:17.649Z,9.70
2018-10-18T10:02:55.331Z,10.17
2018-10-18T10:05:24.856Z,9.30
2018-10-18T10:07:54.641Z,9.07
2018-10-18T10:10:24.659Z,8.97
2018-10-18T10:12:54.447Z,10.00
2018-10-18T10:15:24.363Z,9.73
2018-10-18T10:17:53.990Z,10.30
2018-10-18T10:20:23.589Z,9.23
2018-10-18T10:22:53.188Z,9.67
2018-10-18T10:25:22.743Z,10.07
2018-10-18T10:27:53.288Z,10.03
2018-10-18T10:30:23.006Z,9.33
2018-10-18T10:32:52.881Z,9.50
2018-10-18T10:35:22.497Z,9.07
2018-10-18T10:37:52.584Z,9.67
2018-10-18T10:40:22.399Z,9.60
2018-10-18T10:42:53.041Z,9.83
2018-10-18T10:45:22.703Z,9.20
2018-10-18T10:47:52.655Z,9.97
2018-10-18T10:50:22.220Z,10.07
2018-10-18T10:52:52.054Z,8.93
2018-10-18T10:55:21.968Z,8.63
2018-10-18T10:57:51.685Z,8.60
2018-10-18T11:00:30.690Z,8.93
2018-10-18T11:03:00.415Z,8.93
2018-10-18T11:05:30.009Z,9.77
2018-10-18T11:07:59.557Z,9.37
2018-10-18T11:10:29.009Z,9.93
2018-10-18T11:12:58.610Z,9.00
2018-10-18T11:15:28.235Z,7.53
2018-10-18T11:17:58.348Z,9.40
2018-10-18T11:20:28.060Z,10.00
2018-10-18T11:22:57.806Z,9.20
2018-10-18T11:25:27.415Z,8.60
2018-10-18T11:27:56.945Z,9.17
2018-10-18T11:30:26.904Z,9.57
2018-10-18T11:32:56.621Z,7.90
2018-10-18T11:35:26.272Z,7.87
2018-10-18T11:37:55.805Z,9.17
2018-10-18T11:40:25.426Z,8.77
2018-10-18T11:42:55.123Z,8.07
2018-10-18T11:45:24.788Z,7.70
2018-10-18T11:47:54.417Z,8.73
2018-10-18T11:50:24.385Z,8.97
2018-10-18T11:52:55.319Z,7.97
2018-10-18T11:55:24.870Z,8.03
2018-10-18T11:57:54.717Z,5.87
2018-10-18T12:00:26.050Z,6.30
2018-10-18T12:02:55.659Z,7.23
2018-10-18T12:05:25.379Z,8.23
2018-10-18T12:07:55.414Z,7.13
2018-10-18T12:10:25.055Z,8.33
2018-10-18T12:12:54.621Z,7.60
2018-10-18T12:15:24.701Z,7.37
2018-10-18T12:17:54.155Z,7.20
2018-10-18T12:20:23.569Z,7.73
2018-10-18T12:22:53.222Z,7.97
2018-10-18T12:25:22.874Z,7.63
2018-10-18T12:27:52.623Z,8.07
2018-10-18T12:30:22.050Z,6.93
2018-10-18T12:32:51.731Z,7.47
2018-10-18T12:35:21.211Z,7.07
2018-10-18T12:37:50.794Z,7.17
2018-10-18T12:40:20.346Z,6.93
2018-10-18T12:42:51.029Z,6.67
2018-10-18T12:45:20.691Z,6.40
2018-10-18T12:47:51.057Z,6.23
2018-10-18T12:50:20.764Z,6.73
2018-10-18T12:52:50.395Z,6.80
2018-10-18T12:55:19.992Z,6.97
2018-10-18T12:57:52.470Z,6.93
2018-10-18T13:00:21.956Z,8.17
2018-10-18T13:02:51.477Z,7.10
2018-10-18T13:05:21.023Z,6.93
2018-10-18T13:07:50.492Z,6.73
2018-10-18T13:10:20.529Z,6.63
2018-10-18T13:12:50.137Z,7.20
2018-10-18T13:15:20.929Z,6.73
2018-10-18T13:17:50.594Z,7.30
2018-10-18T13:20:21.440Z,7.47
2018-10-18T13:22:51.123Z,7.07
2018-10-18T13:25:20.825Z,5.67
2018-10-18T13:27:50.672Z,6.70
2018-10-18T13:30:20.250Z,7.23
2018-10-18T13:32:49.928Z,6.67
2018-10-18T13:35:19.591Z,7.13
2018-10-18T13:37:49.447Z,6.73
2018-10-18T13:40:21.077Z,7.23
2018-10-18T13:42:50.698Z,7.30
2018-10-18T13:45:20.340Z,6.57
2018-10-18T13:47:50.102Z,6.87
2018-10-18T13:50:19.726Z,6.60
2018-10-18T13:52:49.292Z,7.00
2018-10-18T13:55:18.820Z,6.80
2018-10-18T13:57:48.474Z,7.57
2018-10-18T14:00:27.126Z,7.13
2018-10-18T14:02:56.800Z,5.40
2018-10-18T14:05:27.389Z,6.27
2018-10-18T14:07:57.762Z,6.60
2018-10-18T14:10:27.476Z,6.80
2018-10-18T14:12:56.928Z,7.07
2018-10-18T14:15:26.700Z,7.63
2018-10-18T14:17:56.328Z,7.60
2018-10-18T14:20:26.180Z,7.60
2018-10-18T14:22:55.774Z,7.03
2018-10-18T14:25:25.324Z,6.50
2018-10-18T14:27:54.940Z,7.30
2018-10-18T14:30:24.820Z,6.77
2018-10-18T14:32:54.346Z,6.17
2018-10-18T14:35:24.024Z,6.17
2018-10-18T14:37:53.529Z,6.70
2018-10-18T14:40:23.143Z,7.23
2018-10-18T14:42:52.703Z,6.67
2018-10-18T14:45:22.278Z,6.10
2018-10-18T14:47:52.048Z,6.90
2018-10-18T14:50:21.663Z,6.90
2018-10-18T14:52:51.291Z,10.80
2018-10-18T14:55:20.772Z,7.37
2018-10-18T14:57:50.840Z,7.57
2018-10-18T15:00:20.514Z,11.80
2018-10-18T15:02:50.192Z,6.70
2018-10-18T15:05:20.050Z,6.23
2018-10-18T15:07:49.406Z,6.00
2018-10-18T15:10:18.818Z,6.43
2018-10-18T15:12:58.693Z,6.13
2018-10-18T15:15:28.552Z,5.97
2018-10-18T15:17:58.336Z,6.47
2018-10-18T15:20:27.982Z,6.13
2018-10-18T15:22:59.142Z,5.47
2018-10-18T15:25:28.798Z,5.30
2018-10-18T15:27:58.508Z,6.50
2018-10-18T15:30:29.589Z,5.97
2018-10-18T15:32:59.422Z,6.23
2018-10-18T15:35:29.578Z,6.10
2018-10-18T15:37:59.291Z,6.20
2018-10-18T15:40:29.160Z,6.70
2018-10-18T15:42:58.815Z,6.47
2018-10-18T15:45:28.242Z,5.83
2018-10-18T15:47:57.798Z,6.23
2018-10-18T15:50:27.407Z,6.37
2018-10-18T15:52:57.978Z,7.50
2018-10-18T15:55:27.728Z,7.80
2018-10-18T15:57:57.304Z,6.37
2018-10-18T16:00:26.989Z,7.40
2018-10-18T16:03:01.548Z,7.50
2018-10-18T16:05:31.169Z,6.90
2018-10-18T16:08:00.831Z,6.97
2018-10-18T16:10:30.288Z,7.23
2018-10-18T16:13:00.891Z,6.93
2018-10-18T16:15:30.292Z,6.67
2018-10-18T16:18:00.041Z,7.17
2018-10-18T16:20:29.609Z,7.37
2018-10-18T16:22:59.521Z,7.43
2018-10-18T16:25:29.227Z,7.43
2018-10-18T16:27:59.101Z,7.07
2018-10-18T16:30:29.153Z,7.93
2018-10-18T16:32:59.402Z,7.90
2018-10-18T16:35:29.235Z,7.23
2018-10-18T16:37:58.733Z,7.10
2018-10-18T16:40:28.246Z,7.23
2018-10-18T16:42:57.899Z,7.20
2018-10-18T16:45:27.951Z,7.90
2018-10-18T16:47:57.556Z,7.60
2018-10-18T16:50:27.340Z,8.33
2018-10-18T16:52:56.742Z,6.50
2018-10-18T16:55:26.589Z,6.27
2018-10-18T16:57:56.340Z,6.90
2018-10-18T17:00:25.950Z,7.63
2018-10-18T17:02:55.644Z,8.50
2018-10-18T17:05:25.084Z,9.33
2018-10-18T17:07:54.855Z,9.23
2018-10-18T17:10:24.356Z,8.80
2018-10-18T17:12:53.855Z,9.00
2018-10-18T17:15:23.701Z,7.87
2018-10-18T17:17:53.231Z,8.30
2018-10-18T17:20:23.037Z,8.93
2018-10-18T17:22:52.614Z,8.70
2018-10-18T17:25:22.224Z,9.60
2018-10-18T17:27:52.064Z,8.27
2018-10-18T17:30:21.569Z,8.50
2018-10-18T17:32:51.061Z,9.30
2018-10-18T17:35:20.808Z,10.80
2018-10-18T17:37:50.530Z,10.73
2018-10-18T17:40:20.257Z,9.93
2018-10-18T17:42:50.309Z,10.17
2018-10-18T17:45:19.970Z,10.17
2018-10-18T17:47:49.803Z,10.70
2018-10-18T17:50:20.187Z,10.23
2018-10-18T17:52:49.680Z,10.87
2018-10-18T17:55:19.169Z,10.67
2018-10-18T17:57:48.726Z,9.10
2018-10-18T18:00:18.181Z,10.13
2018-10-18T18:02:47.701Z,11.37
2018-10-18T18:05:17.411Z,10.07
2018-10-18T18:07:47.277Z,10.37
2018-10-18T18:10:17.677Z,10.50
2018-10-18T18:12:47.497Z,10.43
2018-10-18T18:15:17.083Z,11.13
2018-10-18T18:17:46.786Z,10.90
2018-10-18T18:20:16.255Z,11.90
2018-10-18T18:22:46.235Z,10.40
2018-10-18T18:25:15.780Z,10.97
2018-10-18T18:27:45.385Z,11.43
2018-10-18T18:30:16.070Z,11.00
2018-10-18T18:32:45.831Z,12.53
2018-10-18T18:35:15.458Z,11.10
2018-10-18T18:37:45.187Z,11.27
2018-10-18T18:40:14.793Z,10.23
2018-10-18T18:42:44.441Z,11.37
2018-10-18T18:45:19.451Z,11.50
2018-10-18T18:47:49.007Z,11.73
2018-10-18T18:50:18.466Z,10.70
2018-10-18T18:52:48.273Z,10.50
2018-10-18T18:55:18.060Z,10.20
2018-10-18T18:57:47.765Z,9.53
2018-10-18T19:00:17.361Z,10.67
2018-10-18T19:02:47.085Z,10.13
2018-10-18T19:05:16.857Z,11.10
2018-10-18T19:07:47.041Z,9.80
2018-10-18T19:10:17.420Z,10.47
2018-10-18T19:12:47.200Z,9.67
2018-10-18T19:15:17.075Z,10.73
2018-10-18T19:17:46.459Z,11.83
2018-10-18T19:20:16.096Z,12.07
2018-10-18T19:22:45.851Z,9.87
2018-10-18T19:25:15.832Z,10.73
2018-10-18T19:27:45.771Z,10.20
2018-10-18T19:30:15.647Z,9.87
2018-10-18T19:32:45.132Z,9.43
2018-10-18T19:35:14.518Z,10.77
2018-10-18T19:37:44.128Z,10.80
2018-10-18T19:40:14.004Z,10.10
2018-10-18T19:42:43.711Z,10.30
2018-10-18T19:45:13.328Z,11.50
2018-10-18T19:47:43.220Z,10.50
2018-10-18T19:50:13.038Z,11.63
2018-10-18T19:52:42.711Z,11.07
2018-10-18T19:55:12.567Z,13.40
2018-10-18T19:57:42.113Z,13.97
2018-10-18T20:00:11.596Z,12.23
2018-10-18T20:02:41.232Z,10.80
2018-10-18T20:05:10.935Z,11.03
2018-10-18T20:07:40.689Z,10.23
2018-10-18T20:10:10.400Z,11.90
2018-10-18T20:12:39.926Z,11.63
2018-10-18T20:15:09.736Z,11.33
2018-10-18T20:17:39.315Z,11.47
2018-10-18T20:20:10.092Z,10.40
2018-10-18T20:22:40.007Z,11.70
2018-10-18T20:25:10.397Z,14.13
2018-10-18T20:27:40.254Z,13.87
2018-10-18T20:30:12.887Z,15.23
2018-10-18T20:32:42.847Z,15.90
2018-10-18T20:35:12.469Z,16.73
2018-10-18T20:37:42.345Z,17.17
2018-10-18T20:40:14.794Z,18.57
2018-10-18T20:42:44.734Z,17.20
2018-10-18T20:45:19.657Z,17.40
2018-10-18T20:47:49.445Z,16.50
2018-10-18T20:50:19.097Z,15.17
2018-10-18T20:52:48.599Z,15.40
2018-10-18T20:55:18.066Z,15.43
2018-10-18T20:57:47.673Z,14.87
2018-10-18T21:00:17.345Z,14.93
2018-10-18T21:02:46.814Z,16.43
2018-10-18T21:05:16.637Z,14.80
2018-10-18T21:07:46.473Z,15.33
2018-10-18T21:10:16.106Z,15.97
2018-10-18T21:12:45.705Z,16.67
2018-10-18T21:15:15.399Z,15.50
2018-10-18T21:17:44.963Z,15.97
2018-10-18T21:20:14.507Z,17.10
2018-10-18T21:22:44.186Z,15.60
2018-10-18T21:25:13.922Z,17.27
2018-10-18T21:27:43.531Z,16.77
2018-10-18T21:30:13.104Z,15.93
2018-10-18T21:32:42.868Z,15.60
2018-10-18T21:35:12.702Z,15.40
2018-10-18T21:37:42.184Z,14.00
2018-10-18T21:40:11.215Z,13.43
2018-10-18T21:42:40.759Z,14.00
2018-10-18T21:45:10.352Z,14.03
2018-10-18T21:47:40.730Z,12.70
2018-10-18T21:50:10.553Z,13.97
2018-10-18T21:52:40.163Z,12.87
2018-10-18T21:55:09.353Z,13.23
2018-10-18T21:57:39.042Z,14.10
2018-10-18T22:00:17.103Z,13.57
2018-10-18T22:02:47.300Z,13.47
2018-10-18T22:05:16.908Z,15.30
2018-10-18T22:07:46.579Z,13.60
2018-10-18T22:10:16.216Z,13.53
2018-10-18T22:12:45.724Z,15.30
2018-10-18T22:15:15.486Z,14.43
2018-10-18T22:17:44.976Z,14.57
2018-10-18T22:20:14.644Z,15.93
2018-10-18T22:22:44.347Z,15.33
2018-10-18T22:25:14.018Z,16.33
2018-10-18T22:27:43.536Z,14.80
2018-10-18T22:30:13.218Z,13.27
2018-10-18T22:32:42.705Z,11.93
2018-10-18T22:35:12.563Z,14.03
2018-10-18T22:37:42.048Z,13.47
2018-10-18T22:40:11.886Z,12.00
2018-10-18T22:42:41.557Z,14.27
2018-10-18T22:45:11.294Z,15.53
2018-10-18T22:47:40.597Z,16.50
2018-10-18T22:50:10.453Z,14.80
2018-10-18T22:52:40.078Z,14.17
2018-10-18T22:55:10.603Z,14.00
2018-10-18T22:57:40.150Z,14.50
2018-10-18T23:00:10.099Z,13.47
2018-10-18T23:02:39.780Z,12.90
2018-10-18T23:05:09.591Z,13.57
2018-10-18T23:07:39.232Z,11.10
2018-10-18T23:10:08.857Z,12.57
2018-10-18T23:12:38.437Z,12.47
2018-10-18T23:15:09.722Z,12.97
2018-10-18T23:17:39.383Z,12.63
2018-10-18T23:20:09.368Z,14.57
2018-10-18T23:22:38.924Z,14.70
2018-10-18T23:25:08.613Z,14.73
2018-10-18T23:27:39.107Z,14.07
2018-10-18T23:30:09.551Z,15.03
2018-10-18T23:32:39.525Z,16.33
2018-10-18T23:35:09.120Z,13.40
2018-10-18T23:37:38.594Z,15.07
2018-10-18T23:40:08.144Z,14.47
2018-10-18T23:42:37.711Z,14.53
2018-10-18T23:45:08.215Z,16.50
2018-10-18T23:47:37.414Z,15.83
2018-10-18T23:50:07.355Z,14.40
2018-10-18T23:52:36.982Z,16.27
2018-10-18T23:55:07.444Z,14.23
2018-10-18T23:57:36.851Z,14.33
